Time,TemperatureF,DewpointF,PressureIn,WindDirection,WindDirectionDegrees,WindSpeedMPH,WindSpeedGustMPH,Humidity,HourlyPrecipIn,Conditions,Clouds,dailyrainin,SoftwareType,DateUTC
2013-04-10 00:08:00,67.5,49.2,29.97,South,180,1.6,2.0,52,0.00,,,0.00,WUHU21623XXSP,2013-04-10 04:08:00,
2013-04-10 00:18:00,67.3,49.1,29.97,South,180,0.0,2.7,52,0.00,,,0.00,WUHU21623XXSP,2013-04-10 04:18:00,
2013-04-10 00:28:00,67.1,49.4,29.97,South,180,1.1,2.9,53,0.00,,,0.00,WUHU21623XXSP,2013-04-10 04:28:00,
2013-04-10 00:38:00,66.7,49.1,29.98,South,180,0.0,2.0,53,0.00,,,0.00,WUHU21623XXSP,2013-04-10 04:38:00,
2013-04-10 00:48:00,66.6,48.9,29.98,South,180,0.7,2.2,53,0.00,,,0.00,WUHU21623XXSP,2013-04-10 04:48:00,
2013-04-10 00:58:00,66.6,48.9,29.98,South,180,1.8,3.8,53,0.00,,,0.00,WUHU21623XXSP,2013-04-10 04:58:00,
2013-04-10 01:08:00,66.4,48.7,29.98,South,180,0.9,2.7,53,0.00,,,0.00,WUHU21623XXSP,2013-04-10 05:08:00,
2013-04-10 01:18:00,66.4,48.7,29.98,South,180,4.7,4.7,53,0.00,,,0.00,WUHU21623XXSP,2013-04-10 05:18:00,
2013-04-10 01:28:00,66.2,48.6,29.99,South,180,1.3,2.7,53,0.00,,,0.00,WUHU21623XXSP,2013-04-10 05:28:00,
2013-04-10 01:38:00,66.0,48.4,29.98,South,180,2.0,3.4,53,0.00,,,0.00,WUHU21623XXSP,2013-04-10 05:38:00,
2013-04-10 01:48:00,66.0,48.4,29.98,South,180,2.9,2.9,53,0.00,,,0.00,WUHU21623XXSP,2013-04-10 05:48:00,
2013-04-10 01:58:00,66.0,48.9,29.99,South,180,2.2,3.1,54,0.00,,,0.00,WUHU21623XXSP,2013-04-10 05:58:00,
2013-04-10 02:08:00,65.8,48.7,29.99,South,180,2.5,4.0,54,0.00,,,0.00,WUHU21623XXSP,2013-04-10 06:08:00,
2013-04-10 02:18:00,65.8,48.7,29.98,South,180,4.0,4.0,54,0.00,,,0.00,WUHU21623XXSP,2013-04-10 06:18:00,
2013-04-10 02:28:00,65.8,48.7,29.98,South,180,3.4,3.4,54,0.00,,,0.00,WUHU21623XXSP,2013-04-10 06:28:00,
2013-04-10 02:38:00,65.5,48.3,29.99,South,180,2.7,3.4,54,0.00,,,0.00,WUHU21623XXSP,2013-04-10 06:38:00,
2013-04-10 02:48:00,65.5,48.3,29.98,South,180,2.0,2.9,54,0.00,,,0.00,WUHU21623XXSP,2013-04-10 06:48:00,
2013-04-10 02:58:00,65.3,48.7,29.99,South,180,3.8,3.8,55,0.00,,,0.00,WUHU21623XXSP,2013-04-10 06:58:00,
2013-04-10 03:08:00,65.1,48.5,29.99,SSW,202,2.7,2.9,55,0.00,,,0.00,WUHU21623XXSP,2013-04-10 07:08:00,
2013-04-10 03:18:00,65.1,48.5,29.99,SSW,202,2.9,4.7,55,0.00,,,0.00,WUHU21623XXSP,2013-04-10 07:18:00,
2013-04-10 03:28:00,64.9,48.3,30.00,SSW,202,2.7,2.9,55,0.00,,,0.00,WUHU21623XXSP,2013-04-10 07:28:00,
2013-04-10 03:38:00,64.6,48.4,30.00,SSW,202,2.9,3.6,56,0.00,,,0.00,WUHU21623XXSP,2013-04-10 07:38:00,
2013-04-10 03:48:00,64.6,48.4,30.00,SSW,202,2.7,4.7,56,0.00,,,0.00,WUHU21623XXSP,2013-04-10 07:48:00,
2013-04-10 03:58:00,64.6,48.9,30.00,SSW,202,4.5,4.5,57,0.00,,,0.00,WUHU21623XXSP,2013-04-10 07:58:00,
2013-04-10 04:08:00,64.9,49.3,30.00,SSW,202,2.7,3.6,57,0.00,,,0.00,WUHU21623XXSP,2013-04-10 08:08:00,
2013-04-10 04:18:00,65.1,49.4,30.00,SSW,202,2.2,4.5,57,0.00,,,0.00,WUHU21623XXSP,2013-04-10 08:18:00,
2013-04-10 04:28:00,65.5,49.8,30.00,SSW,202,0.9,5.4,57,0.00,,,0.00,WUHU21623XXSP,2013-04-10 08:28:00,
2013-04-10 04:38:00,65.5,49.8,30.00,SSW,202,4.5,4.5,57,0.00,,,0.00,WUHU21623XXSP,2013-04-10 08:38:00,
2013-04-10 04:48:00,65.3,49.6,30.01,SSW,202,0.9,4.0,57,0.00,,,0.00,WUHU21623XXSP,2013-04-10 08:48:00,
2013-04-10 04:58:00,65.1,49.4,30.00,SSW,202,2.9,3.6,57,0.00,,,0.00,WUHU21623XXSP,2013-04-10 08:58:00,
2013-04-10 05:08:00,65.3,50.1,30.00,SSW,202,2.0,5.4,58,0.00,,,0.00,WUHU21623XXSP,2013-04-10 09:08:00,
2013-04-10 05:18:00,65.3,50.1,30.00,SSW,202,1.6,2.9,58,0.00,,,0.00,WUHU21623XXSP,2013-04-10 09:18:00,
2013-04-10 05:28:00,65.5,50.3,29.99,SSW,202,0.0,5.1,58,0.00,,,0.00,WUHU21623XXSP,2013-04-10 09:28:00,
2013-04-10 05:38:00,65.7,50.5,29.99,SSW,202,4.3,5.4,58,0.00,,,0.00,WUHU21623XXSP,2013-04-10 09:38:00,
2013-04-10 05:48:00,65.8,51.1,29.98,South,180,2.9,4.7,59,0.00,,,0.00,WUHU21623XXSP,2013-04-10 09:48:00,
2013-04-10 05:58:00,65.8,51.1,29.99,SSW,202,3.1,4.3,59,0.00,,,0.00,WUHU21623XXSP,2013-04-10 09:58:00,
2013-04-10 06:08:00,65.8,51.1,29.99,SSW,202,0.0,4.5,59,0.00,,,0.00,WUHU21623XXSP,2013-04-10 10:08:00,
2013-04-10 06:18:00,65.8,51.1,29.99,SSW,202,3.8,4.9,59,0.00,,,0.00,WUHU21623XXSP,2013-04-10 10:18:00,
2013-04-10 06:28:00,65.7,51.4,29.99,SSW,202,6.7,6.7,60,0.00,,,0.00,WUHU21623XXSP,2013-04-10 10:28:00,
2013-04-10 06:38:00,65.5,51.3,29.99,SSW,202,2.7,6.7,60,0.00,,,0.00,WUHU21623XXSP,2013-04-10 10:38:00,
2013-04-10 06:48:00,65.5,51.3,29.99,South,180,4.3,4.3,60,0.00,,,0.00,WUHU21623XXSP,2013-04-10 10:48:00,
2013-04-10 06:58:00,65.5,51.3,29.98,SSW,202,2.2,5.4,60,0.00,,,0.00,WUHU21623XXSP,2013-04-10 10:58:00,
2013-04-10 07:08:00,65.1,50.9,29.99,SSW,202,4.3,4.3,60,0.00,,,0.00,WUHU21623XXSP,2013-04-10 11:08:00,
2013-04-10 07:18:00,65.3,51.5,30.00,SSW,202,4.7,4.7,61,0.00,,,0.00,WUHU21623XXSP,2013-04-10 11:18:00,
2013-04-10 07:28:00,65.3,51.5,29.99,SSW,202,2.2,3.6,61,0.00,,,0.00,WUHU21623XXSP,2013-04-10 11:28:00,
2013-04-10 07:38:00,65.3,51.5,30.00,South,180,1.6,2.9,61,0.00,,,0.00,WUHU21623XXSP,2013-04-10 11:38:00,
2013-04-10 07:48:00,65.5,51.7,30.00,SSW,202,4.9,4.9,61,0.00,,,0.00,WUHU21623XXSP,2013-04-10 11:48:00,
2013-04-10 07:58:00,65.7,51.9,30.01,SSW,202,2.7,3.8,61,0.00,,,0.00,WUHU21623XXSP,2013-04-10 11:58:00,
2013-04-10 08:08:00,66.0,52.2,30.00,SSW,202,1.1,3.8,61,0.00,,,0.00,WUHU21623XXSP,2013-04-10 12:08:00,
2013-04-10 08:18:00,66.7,52.5,30.01,SSW,202,3.4,3.8,60,0.00,,,0.00,WUHU21623XXSP,2013-04-10 12:18:00,
2013-04-10 08:28:00,67.6,52.8,30.01,SSW,202,5.4,5.4,59,0.00,,,0.00,WUHU21623XXSP,2013-04-10 12:28:00,
2013-04-10 08:38:00,68.5,53.3,30.01,SW,225,3.6,3.6,58,0.00,,,0.00,WUHU21623XXSP,2013-04-10 12:38:00,
2013-04-10 08:48:00,70.2,54.2,30.00,SSW,202,5.8,5.8,57,0.00,,,0.00,WUHU21623XXSP,2013-04-10 12:48:00,
2013-04-10 08:58:00,71.4,54.3,30.01,South,180,2.7,7.2,55,0.00,,,0.00,WUHU21623XXSP,2013-04-10 12:58:00,
2013-04-10 09:08:00,73.2,55.0,30.00,SSW,202,1.8,4.0,53,0.00,,,0.00,WUHU21623XXSP,2013-04-10 13:08:00,
2013-04-10 09:18:00,73.0,54.8,30.00,SSW,202,7.8,8.1,53,0.00,,,0.00,WUHU21623XXSP,2013-04-10 13:18:00,
2013-04-10 09:28:00,72.3,54.1,30.00,South,180,1.1,6.0,53,0.00,,,0.00,WUHU21623XXSP,2013-04-10 13:28:00,
2013-04-10 09:38:00,72.5,54.8,30.00,South,180,7.4,7.4,54,0.00,,,0.00,WUHU21623XXSP,2013-04-10 13:38:00,
2013-04-10 09:48:00,73.8,55.5,30.01,SSE,157,5.8,8.5,53,0.00,,,0.00,WUHU21623XXSP,2013-04-10 13:48:00,
2013-04-10 09:58:00,74.5,55.2,30.00,SW,225,0.0,9.8,51,0.00,,,0.00,WUHU21623XXSP,2013-04-10 13:58:00,
2013-04-10 10:08:00,74.3,55.0,30.00,SSW,202,3.6,8.1,51,0.00,,,0.00,WUHU21623XXSP,2013-04-10 14:08:00,
2013-04-10 10:18:00,74.5,55.2,30.00,SW,225,0.0,6.0,51,0.00,,,0.00,WUHU21623XXSP,2013-04-10 14:18:00,
2013-04-10 10:28:00,74.5,55.2,30.00,SSW,202,4.7,4.7,51,0.00,,,0.00,WUHU21623XXSP,2013-04-10 14:28:00,
2013-04-10 10:38:00,76.1,56.2,29.99,SW,225,2.5,6.7,50,0.00,,,0.00,WUHU21623XXSP,2013-04-10 14:38:00,
2013-04-10 10:48:00,77.2,56.6,30.00,SSW,202,5.1,11.4,49,0.00,,,0.00,WUHU21623XXSP,2013-04-10 14:48:00,
2013-04-10 10:58:00,77.5,56.9,30.00,SSE,157,2.2,3.4,49,0.00,,,0.00,WUHU21623XXSP,2013-04-10 14:58:00,
2013-04-10 11:08:00,79.0,57.3,29.99,SSW,202,1.3,2.2,48,0.00,,,0.00,WUHU21623XXSP,2013-04-10 15:08:00,
2013-04-10 11:18:00,79.7,57.6,29.99,SW,225,5.8,8.9,47,0.00,,,0.00,WUHU21623XXSP,2013-04-10 15:18:00,
2013-04-10 11:28:00,80.2,58.1,29.99,SSW,202,2.2,6.9,47,0.00,,,0.00,WUHU21623XXSP,2013-04-10 15:28:00,
2013-04-10 11:38:00,79.7,57.6,29.99,WSW,247,2.9,5.6,47,0.00,,,0.00,WUHU21623XXSP,2013-04-10 15:38:00,
2013-04-10 11:48:00,80.8,58.6,29.98,SSW,202,6.3,6.3,47,0.00,,,0.00,WUHU21623XXSP,2013-04-10 15:48:00,
2013-04-10 11:58:00,82.0,58.5,29.98,WSW,247,6.7,8.3,45,0.00,,,0.00,WUHU21623XXSP,2013-04-10 15:58:00,
2013-04-10 12:08:00,82.2,59.3,29.97,SW,225,2.2,6.5,46,0.00,,,0.00,WUHU21623XXSP,2013-04-10 16:08:00,
2013-04-10 12:18:00,82.8,59.2,29.98,WSW,247,6.9,6.9,45,0.00,,,0.00,WUHU21623XXSP,2013-04-10 16:18:00,
2013-04-10 12:28:00,83.8,59.6,29.97,WNW,292,2.7,6.7,44,0.00,,,0.00,WUHU21623XXSP,2013-04-10 16:28:00,
2013-04-10 12:38:00,84.0,59.1,29.97,SSW,202,3.6,6.3,43,0.00,,,0.00,WUHU21623XXSP,2013-04-10 16:38:00,
2013-04-10 12:48:00,83.7,59.4,29.96,SSW,202,2.7,4.0,44,0.00,,,0.00,WUHU21623XXSP,2013-04-10 16:48:00,
2013-04-10 12:58:00,84.0,59.7,29.96,SSW,202,8.1,8.1,44,0.00,,,0.00,WUHU21623XXSP,2013-04-10 16:58:00,
2013-04-10 13:08:00,84.9,60.5,29.95,WSW,247,6.7,7.4,44,0.00,,,0.00,WUHU21623XXSP,2013-04-10 17:08:00,
2013-04-10 13:18:00,85.6,59.9,29.95,SW,225,6.9,11.2,42,0.00,,,0.00,WUHU21623XXSP,2013-04-10 17:18:00,
2013-04-10 13:28:00,86.5,60.7,29.95,SW,225,4.3,7.8,42,0.00,,,0.00,WUHU21623XXSP,2013-04-10 17:28:00,
2013-04-10 13:38:00,86.2,60.4,29.94,SSW,202,0.0,6.5,42,0.00,,,0.00,WUHU21623XXSP,2013-04-10 17:38:00,
2013-04-10 13:48:00,85.8,59.5,29.94,SW,225,5.1,5.1,41,0.00,,,0.00,WUHU21623XXSP,2013-04-10 17:48:00,
2013-04-10 13:58:00,86.2,59.8,29.94,NW,315,4.3,4.3,41,0.00,,,0.00,WUHU21623XXSP,2013-04-10 17:58:00,
2013-04-10 14:08:00,86.5,59.5,29.94,WSW,247,3.8,5.6,40,0.00,,,0.00,WUHU21623XXSP,2013-04-10 18:08:00,
2013-04-10 14:18:00,87.1,59.2,29.93,WSW,247,6.0,8.9,39,0.00,,,0.00,WUHU21623XXSP,2013-04-10 18:18:00,
2013-04-10 14:28:00,87.1,59.2,29.92,SSW,202,5.1,7.8,39,0.00,,,0.00,WUHU21623XXSP,2013-04-10 18:28:00,
2013-04-10 14:38:00,87.1,59.6,29.92,South,180,0.0,3.4,40,0.00,,,0.00,WUHU21623XXSP,2013-04-10 18:38:00,
2013-04-10 14:48:00,87.8,60.6,29.91,SSW,202,0.0,6.0,40,0.00,,,0.00,WUHU21623XXSP,2013-04-10 18:48:00,
2013-04-10 14:58:00,87.8,59.8,29.91,SW,225,4.3,4.3,39,0.00,,,0.00,WUHU21623XXSP,2013-04-10 18:58:00,
2013-04-10 15:08:00,88.0,59.1,29.90,SSE,157,1.8,5.4,38,0.00,,,0.00,WUHU21623XXSP,2013-04-10 19:08:00,
2013-04-10 15:18:00,86.7,58.8,29.91,SW,225,6.5,7.8,39,0.00,,,0.00,WUHU21623XXSP,2013-04-10 19:18:00,
2013-04-10 15:28:00,86.2,58.4,29.91,SW,225,0.9,8.5,39,0.00,,,0.00,WUHU21623XXSP,2013-04-10 19:28:00,
2013-04-10 15:38:00,86.0,58.2,29.90,WSW,247,3.4,3.4,39,0.00,,,0.00,WUHU21623XXSP,2013-04-10 19:38:00,
2013-04-10 15:48:00,86.2,58.4,29.90,WSW,247,8.3,8.3,39,0.00,,,0.00,WUHU21623XXSP,2013-04-10 19:48:00,
2013-04-10 15:58:00,85.8,58.0,29.89,SSW,202,12.1,12.1,39,0.00,,,0.00,WUHU21623XXSP,2013-04-10 19:58:00,
2013-04-10 16:08:00,85.8,58.8,29.88,SW,225,0.0,4.9,40,0.00,,,0.00,WUHU21623XXSP,2013-04-10 20:08:00,
2013-04-10 16:18:00,85.8,58.0,29.88,SSW,202,12.8,12.8,39,0.00,,,0.00,WUHU21623XXSP,2013-04-10 20:18:00,
2013-04-10 16:28:00,85.8,58.0,29.88,SW,225,3.8,12.8,39,0.00,,,0.00,WUHU21623XXSP,2013-04-10 20:28:00,
2013-04-10 16:38:00,85.6,57.1,29.86,SW,225,5.4,6.7,38,0.00,,,0.00,WUHU21623XXSP,2013-04-10 20:38:00,
2013-04-10 16:48:00,85.8,57.3,29.85,SW,225,3.4,6.9,38,0.00,,,0.00,WUHU21623XXSP,2013-04-10 20:48:00,
2013-04-10 16:58:00,85.8,57.3,29.85,SSW,202,0.0,9.6,38,0.00,,,0.00,WUHU21623XXSP,2013-04-10 20:58:00,
2013-04-10 17:08:00,86.2,57.6,29.85,SSW,202,1.6,8.3,38,0.00,,,0.00,WUHU21623XXSP,2013-04-10 21:08:00,
2013-04-10 17:18:00,86.4,56.9,29.85,SW,225,8.3,8.3,37,0.00,,,0.00,WUHU21623XXSP,2013-04-10 21:18:00,
2013-04-10 17:28:00,85.5,56.9,29.85,South,180,6.5,7.4,38,0.00,,,0.00,WUHU21623XXSP,2013-04-10 21:28:00,
2013-04-10 17:38:00,84.9,56.4,29.85,SSW,202,8.1,8.1,38,0.00,,,0.00,WUHU21623XXSP,2013-04-10 21:38:00,
2013-04-10 17:48:00,84.9,56.4,29.84,SW,225,2.7,6.9,38,0.00,,,0.00,WUHU21623XXSP,2013-04-10 21:48:00,
2013-04-10 17:59:00,84.7,57.1,29.83,SE,135,2.5,2.5,38,0.00,,,0.00,WUHU21623XXSP,2013-04-10 21:59:00,
2013-04-10 18:09:00,84.4,56.0,29.84,SW,225,6.3,6.3,38,0.00,,,0.00,WUHU21623XXSP,2013-04-10 22:09:00,
2013-04-10 18:19:00,83.8,55.5,29.84,South,180,6.9,8.3,38,0.00,,,0.00,WUHU21623XXSP,2013-04-10 22:19:00,
2013-04-10 18:29:00,83.1,55.6,29.84,SSW,202,5.1,5.1,39,0.00,,,0.00,WUHU21623XXSP,2013-04-10 22:29:00,
2013-04-10 18:39:00,82.6,55.1,29.84,WNW,292,3.1,6.0,39,0.00,,,0.00,WUHU21623XXSP,2013-04-10 22:39:00,
2013-04-10 18:49:00,82.0,55.4,29.84,SW,225,8.3,8.3,40,0.00,,,0.00,WUHU21623XXSP,2013-04-10 22:49:00,
2013-04-10 18:59:00,81.3,54.8,29.85,SW,225,0.0,6.9,40,0.00,,,0.00,WUHU21623XXSP,2013-04-10 22:59:00,
2013-04-10 19:09:00,81.0,54.5,29.85,SSW,202,4.3,4.9,40,0.00,,,0.00,WUHU21623XXSP,2013-04-10 23:09:00,
2013-04-10 19:19:00,80.6,54.1,29.85,SSW,202,3.6,4.7,40,0.00,,,0.00,WUHU21623XXSP,2013-04-10 23:19:00,
2013-04-10 19:29:00,80.2,54.4,29.84,SSW,202,2.7,3.6,41,0.00,,,0.00,WUHU21623XXSP,2013-04-10 23:29:00,
2013-04-10 19:39:00,79.9,54.1,29.85,SSW,202,0.7,6.0,41,0.00,,,0.00,WUHU21623XXSP,2013-04-10 23:39:00,
2013-04-10 19:49:00,79.3,53.6,29.84,SSW,202,0.9,1.3,41,0.00,,,0.00,WUHU21623XXSP,2013-04-10 23:49:00,
2013-04-10 19:59:00,78.6,53.6,29.85,South,180,0.0,0.9,42,0.00,,,0.00,WUHU21623XXSP,2013-04-10 23:59:00,
2013-04-10 20:08:00,78.3,53.4,29.85,South,180,0.0,0.0,42,0.00,,,0.00,WUHU21623XXSP,2013-04-11 00:08:00,
2013-04-10 20:18:00,77.9,53.5,29.85,SSW,202,2.2,2.2,43,0.00,,,0.00,WUHU21623XXSP,2013-04-11 00:18:00,
2013-04-10 20:28:00,77.5,53.2,29.86,SSW,202,0.0,2.2,43,0.00,,,0.00,WUHU21623XXSP,2013-04-11 00:28:00,
2013-04-10 20:38:00,77.2,52.9,29.86,SSW,202,0.0,1.8,43,0.00,,,0.00,WUHU21623XXSP,2013-04-11 00:38:00,
2013-04-10 20:48:00,77.0,53.3,29.87,SW,225,0.0,1.3,44,0.00,,,0.00,WUHU21623XXSP,2013-04-11 00:48:00,
2013-04-10 20:58:00,77.0,53.3,29.87,SW,225,0.0,2.7,44,0.00,,,0.00,WUHU21623XXSP,2013-04-11 00:58:00,
2013-04-10 21:08:00,76.8,53.2,29.87,SW,225,1.1,2.0,44,0.00,,,0.00,WUHU21623XXSP,2013-04-11 01:08:00,
2013-04-10 21:18:00,76.8,53.2,29.88,SW,225,1.1,2.9,44,0.00,,,0.00,WUHU21623XXSP,2013-04-11 01:18:00,
2013-04-10 21:28:00,76.6,53.0,29.89,SW,225,3.6,3.6,44,0.00,,,0.00,WUHU21623XXSP,2013-04-11 01:28:00,
2013-04-10 21:38:00,76.8,53.2,29.90,WNW,292,1.1,1.8,44,0.00,,,0.00,WUHU21623XXSP,2013-04-11 01:38:00,
2013-04-10 21:49:00,77.2,53.5,29.90,WNW,292,2.5,4.9,44,0.00,,,0.00,WUHU21623XXSP,2013-04-11 01:49:00,
2013-04-10 21:59:00,77.7,53.4,29.93,NW,315,8.3,8.3,43,0.00,,,0.00,WUHU21623XXSP,2013-04-11 01:59:00,
2013-04-10 22:09:00,70.7,53.7,29.96,North,0,7.6,11.9,55,0.00,,,0.00,WUHU21623XXSP,2013-04-11 02:09:00,
2013-04-10 22:19:00,68.0,52.6,29.97,NNE,22,12.5,14.1,58,0.00,,,0.00,WUHU21623XXSP,2013-04-11 02:19:00,
2013-04-10 22:29:00,66.6,53.1,29.98,NNE,22,8.1,12.5,62,0.00,,,0.00,WUHU21623XXSP,2013-04-11 02:29:00,
2013-04-10 22:39:00,64.9,53.0,29.98,NE,45,8.5,16.8,66,0.00,,,0.00,WUHU21623XXSP,2013-04-11 02:39:00,
2013-04-10 22:49:00,64.2,53.5,29.97,ENE,67,6.9,7.8,68,0.00,,,0.00,WUHU21623XXSP,2013-04-11 02:49:00,
2013-04-10 22:59:00,64.0,53.3,29.96,NE,45,3.1,8.3,68,0.00,,,0.00,WUHU21623XXSP,2013-04-11 02:59:00,
2013-04-10 23:09:00,64.0,53.7,29.95,NNE,22,11.0,11.0,69,0.00,,,0.00,WUHU21623XXSP,2013-04-11 03:09:00,
2013-04-10 23:19:00,63.3,53.2,29.95,ENE,67,3.8,7.2,70,0.00,,,0.00,WUHU21623XXSP,2013-04-11 03:19:00,
2013-04-10 23:29:00,63.1,53.2,29.94,ENE,67,3.6,6.9,70,0.00,,,0.00,WUHU21623XXSP,2013-04-11 03:29:00,
2013-04-10 23:39:00,63.0,53.1,29.93,ESE,112,1.6,7.4,70,0.00,,,0.00,WUHU21623XXSP,2013-04-11 03:39:00,
2013-04-10 23:49:00,62.8,52.9,29.92,ESE,112,2.0,7.6,70,0.00,,,0.00,WUHU21623XXSP,2013-04-11 03:49:00,
2013-04-10 23:59:00,62.8,52.4,29.91,ENE,67,0.0,4.0,69,0.00,,,0.00,WUHU21623XXSP,2013-04-11 03:59:00,